sensor_id;sensor_type;location;lat;lon;timestamp;pressure;altitude;pressure_sealevel;temperature
81319;BMP280;74078;48.420;14.828;2024-01-30T00:00:51;93852.16;;;3.60
81319;BMP280;74078;48.420;14.828;2024-01-30T00:03:18;93850.75;;;3.62
81319;BMP280;74078;48.420;14.828;2024-01-30T00:05:43;93854.28;;;3.17
81319;BMP280;74078;48.420;14.828;2024-01-30T00:08:08;93856.47;;;3.19
81319;BMP280;74078;48.420;14.828;2024-01-30T00:10:33;93846.94;;;3.38
81319;BMP280;74078;48.420;14.828;2024-01-30T00:12:59;93848.06;;;3.88
81319;BMP280;74078;48.420;14.828;2024-01-30T00:15:24;93843.22;;;4.17
81319;BMP280;74078;48.420;14.828;2024-01-30T00:17:49;93841.53;;;3.80
81319;BMP280;74078;48.420;14.828;2024-01-30T00:20:17;93851.81;;;2.87
81319;BMP280;74078;48.420;14.828;2024-01-30T00:22:42;93850.19;;;3.06
81319;BMP280;74078;48.420;14.828;2024-01-30T00:25:07;93849.47;;;3.05
81319;BMP280;74078;48.420;14.828;2024-01-30T00:27:33;93846.66;;;3.10
81319;BMP280;74078;48.420;14.828;2024-01-30T00:29:58;93839.25;;;3.21
81319;BMP280;74078;48.420;14.828;2024-01-30T00:32:23;93845.34;;;3.20
81319;BMP280;74078;48.420;14.828;2024-01-30T00:34:48;93842.94;;;3.74
81319;BMP280;74078;48.420;14.828;2024-01-30T00:37:14;93836.09;;;3.31
81319;BMP280;74078;48.420;14.828;2024-01-30T00:39:39;93841.91;;;3.82
81319;BMP280;74078;48.420;14.828;2024-01-30T00:42:04;93841.03;;;4.15
81319;BMP280;74078;48.420;14.828;2024-01-30T00:44:29;93839.66;;;4.25
81319;BMP280;74078;48.420;14.828;2024-01-30T00:46:55;93835.56;;;4.02
81319;BMP280;74078;48.420;14.828;2024-01-30T00:49:20;93838.38;;;3.90
81319;BMP280;74078;48.420;14.828;2024-01-30T00:51:45;93831.28;;;4.07
81319;BMP280;74078;48.420;14.828;2024-01-30T00:54:11;93835.78;;;4.41
81319;BMP280;74078;48.420;14.828;2024-01-30T00:56:36;93832.88;;;4.36
81319;BMP280;74078;48.420;14.828;2024-01-30T00:59:01;93828.47;;;4.19
81319;BMP280;74078;48.420;14.828;2024-01-30T01:01:27;93822.75;;;3.67
81319;BMP280;74078;48.420;14.828;2024-01-30T01:03:52;93827.13;;;3.70
81319;BMP280;74078;48.420;14.828;2024-01-30T01:06:17;93829.97;;;2.91
81319;BMP280;74078;48.420;14.828;2024-01-30T01:08:42;93820.75;;;3.03
81319;BMP280;74078;48.420;14.828;2024-01-30T01:11:07;93824.22;;;3.28
81319;BMP280;74078;48.420;14.828;2024-01-30T01:13:33;93811.81;;;3.93
81319;BMP280;74078;48.420;14.828;2024-01-30T01:15:58;93825.44;;;3.88
81319;BMP280;74078;48.420;14.828;2024-01-30T01:18:23;93817.28;;;3.55
81319;BMP280;74078;48.420;14.828;2024-01-30T01:20:48;93818.94;;;3.40
81319;BMP280;74078;48.420;14.828;2024-01-30T01:23:14;93815.53;;;3.18
81319;BMP280;74078;48.420;14.828;2024-01-30T01:25:39;93819.66;;;3.40
81319;BMP280;74078;48.420;14.828;2024-01-30T01:28:04;93815.31;;;4.43
81319;BMP280;74078;48.420;14.828;2024-01-30T01:30:30;93818.28;;;4.66
81319;BMP280;74078;48.420;14.828;2024-01-30T01:32:55;93812.28;;;4.16
81319;BMP280;74078;48.420;14.828;2024-01-30T01:35:24;93809.28;;;4.76
81319;BMP280;74078;48.420;14.828;2024-01-30T01:37:50;93808.25;;;4.98
81319;BMP280;74078;48.420;14.828;2024-01-30T01:40:20;93799.94;;;4.76
81319;BMP280;74078;48.420;14.828;2024-01-30T01:42:45;93801.97;;;4.39
81319;BMP280;74078;48.420;14.828;2024-01-30T01:45:10;93801.94;;;4.28
81319;BMP280;74078;48.420;14.828;2024-01-30T01:47:36;93797.09;;;4.02
81319;BMP280;74078;48.420;14.828;2024-01-30T01:50:01;93793.00;;;4.55
81319;BMP280;74078;48.420;14.828;2024-01-30T01:52:27;93793.59;;;4.21
81319;BMP280;74078;48.420;14.828;2024-01-30T01:54:53;93792.91;;;4.24
81319;BMP280;74078;48.420;14.828;2024-01-30T01:57:18;93791.50;;;4.30
81319;BMP280;74078;48.420;14.828;2024-01-30T01:59:44;93792.72;;;3.88
81319;BMP280;74078;48.420;14.828;2024-01-30T02:02:09;93790.84;;;4.40
81319;BMP280;74078;48.420;14.828;2024-01-30T02:04:36;93794.63;;;3.51
81319;BMP280;74078;48.420;14.828;2024-01-30T02:07:01;93787.66;;;3.81
81319;BMP280;74078;48.420;14.828;2024-01-30T02:09:26;93785.06;;;3.71
81319;BMP280;74078;48.420;14.828;2024-01-30T02:11:51;93782.34;;;3.42
81319;BMP280;74078;48.420;14.828;2024-01-30T02:14:17;93782.13;;;3.18
81319;BMP280;74078;48.420;14.828;2024-01-30T02:16:42;93784.63;;;2.77
81319;BMP280;74078;48.420;14.828;2024-01-30T02:19:07;93781.75;;;2.79
81319;BMP280;74078;48.420;14.828;2024-01-30T02:21:32;93787.09;;;3.11
81319;BMP280;74078;48.420;14.828;2024-01-30T02:23:58;93789.31;;;3.16
81319;BMP280;74078;48.420;14.828;2024-01-30T02:26:23;93780.72;;;3.68
81319;BMP280;74078;48.420;14.828;2024-01-30T02:28:48;93785.25;;;4.02
81319;BMP280;74078;48.420;14.828;2024-01-30T02:31:14;93787.47;;;3.57
81319;BMP280;74078;48.420;14.828;2024-01-30T02:33:39;93788.31;;;3.27
81319;BMP280;74078;48.420;14.828;2024-01-30T02:36:04;93788.81;;;4.01
81319;BMP280;74078;48.420;14.828;2024-01-30T02:38:29;93790.75;;;4.22
81319;BMP280;74078;48.420;14.828;2024-01-30T02:40:55;93790.97;;;3.48
81319;BMP280;74078;48.420;14.828;2024-01-30T02:43:21;93784.41;;;3.81
81319;BMP280;74078;48.420;14.828;2024-01-30T02:45:46;93786.47;;;3.68
81319;BMP280;74078;48.420;14.828;2024-01-30T02:48:11;93792.56;;;4.29
81319;BMP280;74078;48.420;14.828;2024-01-30T02:50:37;93790.16;;;4.50
81319;BMP280;74078;48.420;14.828;2024-01-30T02:53:02;93787.28;;;4.55
81319;BMP280;74078;48.420;14.828;2024-01-30T02:55:27;93785.97;;;4.03
81319;BMP280;74078;48.420;14.828;2024-01-30T02:57:52;93773.91;;;3.68
81319;BMP280;74078;48.420;14.828;2024-01-30T03:00:20;93779.84;;;4.00
81319;BMP280;74078;48.420;14.828;2024-01-30T03:02:46;93774.53;;;3.55
81319;BMP280;74078;48.420;14.828;2024-01-30T03:05:12;93778.50;;;2.78
81319;BMP280;74078;48.420;14.828;2024-01-30T03:07:39;93782.00;;;3.04
81319;BMP280;74078;48.420;14.828;2024-01-30T03:10:05;93781.25;;;2.66
81319;BMP280;74078;48.420;14.828;2024-01-30T03:12:31;93782.66;;;2.64
81319;BMP280;74078;48.420;14.828;2024-01-30T03:14:57;93772.88;;;2.85
81319;BMP280;74078;48.420;14.828;2024-01-30T03:17:22;93777.03;;;3.11
81319;BMP280;74078;48.420;14.828;2024-01-30T03:19:49;93772.66;;;3.44
81319;BMP280;74078;48.420;14.828;2024-01-30T03:22:16;93774.91;;;3.13
81319;BMP280;74078;48.420;14.828;2024-01-30T03:24:42;93769.41;;;2.67
81319;BMP280;74078;48.420;14.828;2024-01-30T03:27:09;93776.91;;;3.37
81319;BMP280;74078;48.420;14.828;2024-01-30T03:29:35;93774.06;;;3.89
81319;BMP280;74078;48.420;14.828;2024-01-30T03:32:01;93779.16;;;4.03
81319;BMP280;74078;48.420;14.828;2024-01-30T03:34:29;93776.91;;;3.88
81319;BMP280;74078;48.420;14.828;2024-01-30T03:36:56;93779.25;;;4.25
81319;BMP280;74078;48.420;14.828;2024-01-30T03:39:22;93783.25;;;4.33
81319;BMP280;74078;48.420;14.828;2024-01-30T03:41:49;93773.44;;;4.17
81319;BMP280;74078;48.420;14.828;2024-01-30T03:44:15;93775.53;;;3.97
81319;BMP280;74078;48.420;14.828;2024-01-30T03:46:42;93779.09;;;3.42
81319;BMP280;74078;48.420;14.828;2024-01-30T03:49:09;93769.56;;;3.62
81319;BMP280;74078;48.420;14.828;2024-01-30T03:51:35;93772.25;;;3.93
81319;BMP280;74078;48.420;14.828;2024-01-30T03:54:02;93771.94;;;3.47
81319;BMP280;74078;48.420;14.828;2024-01-30T03:56:28;93764.72;;;3.93
81319;BMP280;74078;48.420;14.828;2024-01-30T03:58:55;93770.50;;;4.01
81319;BMP280;74078;48.420;14.828;2024-01-30T04:01:22;93760.44;;;3.97
81319;BMP280;74078;48.420;14.828;2024-01-30T04:03:48;93765.47;;;3.97
81319;BMP280;74078;48.420;14.828;2024-01-30T04:06:14;93764.56;;;3.72
81319;BMP280;74078;48.420;14.828;2024-01-30T04:08:44;93772.22;;;3.32
81319;BMP280;74078;48.420;14.828;2024-01-30T04:11:11;93773.59;;;3.29
81319;BMP280;74078;48.420;14.828;2024-01-30T04:13:40;93771.78;;;3.70
81319;BMP280;74078;48.420;14.828;2024-01-30T04:16:08;93765.81;;;3.92
81319;BMP280;74078;48.420;14.828;2024-01-30T04:18:45;93765.78;;;3.89
81319;BMP280;74078;48.420;14.828;2024-01-30T04:21:11;93767.44;;;3.67
81319;BMP280;74078;48.420;14.828;2024-01-30T04:23:37;93775.00;;;3.20
81319;BMP280;74078;48.420;14.828;2024-01-30T04:26:04;93771.22;;;3.03
81319;BMP280;74078;48.420;14.828;2024-01-30T04:28:30;93784.41;;;3.33
81319;BMP280;74078;48.420;14.828;2024-01-30T04:30:56;93781.50;;;3.28
81319;BMP280;74078;48.420;14.828;2024-01-30T04:33:23;93784.31;;;3.23
81319;BMP280;74078;48.420;14.828;2024-01-30T04:35:49;93783.97;;;2.84
81319;BMP280;74078;48.420;14.828;2024-01-30T04:38:15;93788.06;;;2.62
81319;BMP280;74078;48.420;14.828;2024-01-30T04:40:42;93788.31;;;2.87
81319;BMP280;74078;48.420;14.828;2024-01-30T04:43:08;93789.53;;;3.04
81319;BMP280;74078;48.420;14.828;2024-01-30T04:45:37;93792.59;;;2.86
81319;BMP280;74078;48.420;14.828;2024-01-30T04:48:04;93797.34;;;2.58
81319;BMP280;74078;48.420;14.828;2024-01-30T04:50:31;93788.88;;;2.73
81319;BMP280;74078;48.420;14.828;2024-01-30T04:52:57;93795.09;;;2.53
81319;BMP280;74078;48.420;14.828;2024-01-30T04:55:24;93795.16;;;2.27
81319;BMP280;74078;48.420;14.828;2024-01-30T04:57:50;93796.16;;;2.52
81319;BMP280;74078;48.420;14.828;2024-01-30T05:00:17;93795.03;;;2.46
81319;BMP280;74078;48.420;14.828;2024-01-30T05:02:43;93797.47;;;1.90
81319;BMP280;74078;48.420;14.828;2024-01-30T05:05:09;93800.88;;;1.29
81319;BMP280;74078;48.420;14.828;2024-01-30T05:07:36;93800.09;;;1.97
81319;BMP280;74078;48.420;14.828;2024-01-30T05:10:02;93803.97;;;2.17
81319;BMP280;74078;48.420;14.828;2024-01-30T05:12:29;93800.38;;;2.15
81319;BMP280;74078;48.420;14.828;2024-01-30T05:14:56;93797.94;;;2.22
81319;BMP280;74078;48.420;14.828;2024-01-30T05:17:22;93810.31;;;1.81
81319;BMP280;74078;48.420;14.828;2024-01-30T05:19:48;93814.16;;;1.33
81319;BMP280;74078;48.420;14.828;2024-01-30T05:22:15;93815.22;;;1.55
81319;BMP280;74078;48.420;14.828;2024-01-30T05:24:43;93803.38;;;1.75
81319;BMP280;74078;48.420;14.828;2024-01-30T05:27:10;93807.19;;;1.65
81319;BMP280;74078;48.420;14.828;2024-01-30T05:29:39;93813.66;;;1.47
81319;BMP280;74078;48.420;14.828;2024-01-30T05:32:06;93805.25;;;1.59
81319;BMP280;74078;48.420;14.828;2024-01-30T05:34:33;93810.44;;;1.05
81319;BMP280;74078;48.420;14.828;2024-01-30T05:37:02;93811.22;;;1.09
81319;BMP280;74078;48.420;14.828;2024-01-30T05:39:28;93815.84;;;0.87
81319;BMP280;74078;48.420;14.828;2024-01-30T05:41:55;93811.28;;;0.74
81319;BMP280;74078;48.420;14.828;2024-01-30T05:44:21;93815.25;;;0.40
81319;BMP280;74078;48.420;14.828;2024-01-30T05:46:48;93819.38;;;0.48
81319;BMP280;74078;48.420;14.828;2024-01-30T05:49:14;93820.53;;;0.54
81319;BMP280;74078;48.420;14.828;2024-01-30T05:51:41;93813.34;;;0.87
81319;BMP280;74078;48.420;14.828;2024-01-30T05:54:07;93806.09;;;1.21
81319;BMP280;74078;48.420;14.828;2024-01-30T05:56:34;93812.03;;;0.93
81319;BMP280;74078;48.420;14.828;2024-01-30T05:59:00;93804.25;;;0.79
81319;BMP280;74078;48.420;14.828;2024-01-30T06:01:26;93806.97;;;0.90
81319;BMP280;74078;48.420;14.828;2024-01-30T06:03:53;93806.09;;;1.21
81319;BMP280;74078;48.420;14.828;2024-01-30T06:06:19;93805.59;;;1.34
81319;BMP280;74078;48.420;14.828;2024-01-30T06:08:46;93808.94;;;1.19
81319;BMP280;74078;48.420;14.828;2024-01-30T06:11:12;93816.50;;;0.65
81319;BMP280;74078;48.420;14.828;2024-01-30T06:13:38;93813.19;;;0.42
81319;BMP280;74078;48.420;14.828;2024-01-30T06:16:11;93811.47;;;0.27
81319;BMP280;74078;48.420;14.828;2024-01-30T06:18:38;93817.13;;;0.62
81319;BMP280;74078;48.420;14.828;2024-01-30T06:21:04;93819.88;;;0.92
81319;BMP280;74078;48.420;14.828;2024-01-30T06:23:31;93818.97;;;1.00
81319;BMP280;74078;48.420;14.828;2024-01-30T06:25:57;93816.91;;;1.06
81319;BMP280;74078;48.420;14.828;2024-01-30T06:28:24;93814.06;;;1.49
81319;BMP280;74078;48.420;14.828;2024-01-30T06:30:50;93819.28;;;1.40
81319;BMP280;74078;48.420;14.828;2024-01-30T06:33:17;93823.16;;;1.57
81319;BMP280;74078;48.420;14.828;2024-01-30T06:35:43;93820.13;;;1.48
81319;BMP280;74078;48.420;14.828;2024-01-30T06:38:11;93823.84;;;1.35
81319;BMP280;74078;48.420;14.828;2024-01-30T06:40:38;93831.66;;;1.30
81319;BMP280;74078;48.420;14.828;2024-01-30T06:43:05;93837.13;;;1.16
81319;BMP280;74078;48.420;14.828;2024-01-30T06:45:31;93841.44;;;1.16
81319;BMP280;74078;48.420;14.828;2024-01-30T06:47:57;93828.38;;;1.07
81319;BMP280;74078;48.420;14.828;2024-01-30T06:50:24;93836.56;;;1.04
81319;BMP280;74078;48.420;14.828;2024-01-30T06:52:50;93840.47;;;1.24
81319;BMP280;74078;48.420;14.828;2024-01-30T06:55:17;93842.34;;;1.27
81319;BMP280;74078;48.420;14.828;2024-01-30T06:57:44;93840.63;;;1.31
81319;BMP280;74078;48.420;14.828;2024-01-30T07:00:10;93847.91;;;1.39
81319;BMP280;74078;48.420;14.828;2024-01-30T07:02:37;93845.50;;;1.66
81319;BMP280;74078;48.420;14.828;2024-01-30T07:05:03;93845.59;;;1.95
81319;BMP280;74078;48.420;14.828;2024-01-30T07:07:30;93852.28;;;1.65
81319;BMP280;74078;48.420;14.828;2024-01-30T07:09:56;93852.25;;;1.62
81319;BMP280;74078;48.420;14.828;2024-01-30T07:12:22;93855.81;;;1.83
81319;BMP280;74078;48.420;14.828;2024-01-30T07:14:51;93853.13;;;1.95
81319;BMP280;74078;48.420;14.828;2024-01-30T07:17:17;93859.22;;;2.21
81319;BMP280;74078;48.420;14.828;2024-01-30T07:19:44;93855.44;;;2.60
81319;BMP280;74078;48.420;14.828;2024-01-30T07:22:13;93858.69;;;2.61
81319;BMP280;74078;48.420;14.828;2024-01-30T07:24:43;93856.84;;;2.58
81319;BMP280;74078;48.420;14.828;2024-01-30T07:27:13;93862.59;;;2.58
81319;BMP280;74078;48.420;14.828;2024-01-30T07:29:40;93866.59;;;2.92
81319;BMP280;74078;48.420;14.828;2024-01-30T07:32:06;93862.78;;;3.42
81319;BMP280;74078;48.420;14.828;2024-01-30T07:34:32;93868.00;;;3.64
81319;BMP280;74078;48.420;14.828;2024-01-30T07:36:59;93864.59;;;3.86
81319;BMP280;74078;48.420;14.828;2024-01-30T07:39:25;93859.94;;;3.91
81319;BMP280;74078;48.420;14.828;2024-01-30T07:41:52;93865.00;;;3.98
81319;BMP280;74078;48.420;14.828;2024-01-30T07:44:18;93863.94;;;3.92
81319;BMP280;74078;48.420;14.828;2024-01-30T07:46:45;93868.56;;;3.94
81319;BMP280;74078;48.420;14.828;2024-01-30T07:49:11;93863.59;;;3.97
81319;BMP280;74078;48.420;14.828;2024-01-30T07:51:39;93866.06;;;3.90
81319;BMP280;74078;48.420;14.828;2024-01-30T07:54:12;93867.94;;;4.04
81319;BMP280;74078;48.420;14.828;2024-01-30T07:56:41;93875.22;;;4.20
81319;BMP280;74078;48.420;14.828;2024-01-30T07:59:10;93874.63;;;4.40
81319;BMP280;74078;48.420;14.828;2024-01-30T08:01:37;93876.56;;;4.65
81319;BMP280;74078;48.420;14.828;2024-01-30T08:04:03;93870.41;;;4.51
81319;BMP280;74078;48.420;14.828;2024-01-30T08:06:30;93878.28;;;4.46
81319;BMP280;74078;48.420;14.828;2024-01-30T08:08:56;93873.69;;;4.66
81319;BMP280;74078;48.420;14.828;2024-01-30T08:11:24;93877.00;;;4.91
81319;BMP280;74078;48.420;14.828;2024-01-30T08:13:52;93879.25;;;5.18
81319;BMP280;74078;48.420;14.828;2024-01-30T08:16:18;93885.41;;;5.38
81319;BMP280;74078;48.420;14.828;2024-01-30T08:18:45;93889.06;;;5.54
81319;BMP280;74078;48.420;14.828;2024-01-30T08:21:11;93875.00;;;4.42
81319;BMP280;74078;48.420;14.828;2024-01-30T08:23:40;93885.91;;;4.68
81319;BMP280;74078;48.420;14.828;2024-01-30T08:26:07;93888.88;;;4.91
81319;BMP280;74078;48.420;14.828;2024-01-30T08:28:34;93886.06;;;5.06
81319;BMP280;74078;48.420;14.828;2024-01-30T08:31:00;93887.91;;;5.20
81319;BMP280;74078;48.420;14.828;2024-01-30T08:33:26;93882.47;;;5.04
81319;BMP280;74078;48.420;14.828;2024-01-30T08:35:53;93884.69;;;5.23
81319;BMP280;74078;48.420;14.828;2024-01-30T08:38:20;93888.16;;;4.90
81319;BMP280;74078;48.420;14.828;2024-01-30T08:40:46;93886.66;;;4.75
81319;BMP280;74078;48.420;14.828;2024-01-30T08:43:13;93894.41;;;5.28
81319;BMP280;74078;48.420;14.828;2024-01-30T08:45:39;93891.19;;;5.38
81319;BMP280;74078;48.420;14.828;2024-01-30T08:48:06;93902.75;;;5.78
81319;BMP280;74078;48.420;14.828;2024-01-30T08:50:33;93901.31;;;5.70
81319;BMP280;74078;48.420;14.828;2024-01-30T08:53:00;93900.22;;;5.78
81319;BMP280;74078;48.420;14.828;2024-01-30T08:55:26;93905.13;;;5.07
81319;BMP280;74078;48.420;14.828;2024-01-30T08:57:52;93900.19;;;5.43
81319;BMP280;74078;48.420;14.828;2024-01-30T09:00:19;93902.75;;;5.68
81319;BMP280;74078;48.420;14.828;2024-01-30T09:02:46;93904.19;;;5.90
81319;BMP280;74078;48.420;14.828;2024-01-30T09:05:12;93899.13;;;6.00
81319;BMP280;74078;48.420;14.828;2024-01-30T09:07:39;93904.16;;;6.00
81319;BMP280;74078;48.420;14.828;2024-01-30T09:10:05;93910.28;;;6.35
81319;BMP280;74078;48.420;14.828;2024-01-30T09:12:32;93904.53;;;6.24
81319;BMP280;74078;48.420;14.828;2024-01-30T09:14:58;93901.91;;;6.59
81319;BMP280;74078;48.420;14.828;2024-01-30T09:17:25;93895.16;;;7.14
81319;BMP280;74078;48.420;14.828;2024-01-30T09:19:52;93898.50;;;7.59
81319;BMP280;74078;48.420;14.828;2024-01-30T09:22:18;93905.31;;;8.07
81319;BMP280;74078;48.420;14.828;2024-01-30T09:24:47;93896.78;;;8.31
81319;BMP280;74078;48.420;14.828;2024-01-30T09:27:13;93909.44;;;8.31
81319;BMP280;74078;48.420;14.828;2024-01-30T09:29:40;93910.38;;;8.78
81319;BMP280;74078;48.420;14.828;2024-01-30T09:32:06;93908.25;;;9.30
81319;BMP280;74078;48.420;14.828;2024-01-30T09:34:33;93910.19;;;9.45
81319;BMP280;74078;48.420;14.828;2024-01-30T09:36:59;93909.13;;;9.70
81319;BMP280;74078;48.420;14.828;2024-01-30T09:39:26;93916.13;;;9.85
81319;BMP280;74078;48.420;14.828;2024-01-30T09:42:03;93913.34;;;10.39
81319;BMP280;74078;48.420;14.828;2024-01-30T09:44:32;93907.06;;;8.17
81319;BMP280;74078;48.420;14.828;2024-01-30T09:47:02;93907.94;;;7.55
81319;BMP280;74078;48.420;14.828;2024-01-30T09:49:34;93907.06;;;7.24
81319;BMP280;74078;48.420;14.828;2024-01-30T09:52:02;93910.63;;;7.82
81319;BMP280;74078;48.420;14.828;2024-01-30T09:54:32;93916.47;;;7.75
81319;BMP280;74078;48.420;14.828;2024-01-30T09:56:59;93910.66;;;8.19
81319;BMP280;74078;48.420;14.828;2024-01-30T09:59:25;93907.03;;;8.54
81319;BMP280;74078;48.420;14.828;2024-01-30T10:01:51;93902.69;;;9.38
81319;BMP280;74078;48.420;14.828;2024-01-30T10:04:18;93905.63;;;9.37
81319;BMP280;74078;48.420;14.828;2024-01-30T10:06:44;93908.31;;;9.96
81319;BMP280;74078;48.420;14.828;2024-01-30T10:09:11;93907.44;;;10.45
81319;BMP280;74078;48.420;14.828;2024-01-30T10:11:39;93901.94;;;11.18
81319;BMP280;74078;48.420;14.828;2024-01-30T10:14:06;93904.72;;;11.56
81319;BMP280;74078;48.420;14.828;2024-01-30T10:16:34;93904.56;;;10.23
81319;BMP280;74078;48.420;14.828;2024-01-30T10:19:00;93899.31;;;9.91
81319;BMP280;74078;48.420;14.828;2024-01-30T10:21:26;93906.44;;;10.39
81319;BMP280;74078;48.420;14.828;2024-01-30T10:23:53;93895.72;;;11.03
81319;BMP280;74078;48.420;14.828;2024-01-30T10:26:19;93898.25;;;11.68
81319;BMP280;74078;48.420;14.828;2024-01-30T10:28:47;93895.63;;;10.90
81319;BMP280;74078;48.420;14.828;2024-01-30T10:31:17;93893.94;;;11.65
81319;BMP280;74078;48.420;14.828;2024-01-30T10:33:46;93894.19;;;12.40
81319;BMP280;74078;48.420;14.828;2024-01-30T10:36:13;93887.16;;;13.07
81319;BMP280;74078;48.420;14.828;2024-01-30T10:38:42;93892.97;;;14.10
81319;BMP280;74078;48.420;14.828;2024-01-30T10:41:12;93889.09;;;14.67
81319;BMP280;74078;48.420;14.828;2024-01-30T10:43:47;93887.09;;;14.01
81319;BMP280;74078;48.420;14.828;2024-01-30T10:46:20;93877.47;;;12.77
81319;BMP280;74078;48.420;14.828;2024-01-30T10:48:57;93880.91;;;14.42
81319;BMP280;74078;48.420;14.828;2024-01-30T10:51:27;93881.41;;;15.34
81319;BMP280;74078;48.420;14.828;2024-01-30T10:53:54;93879.88;;;14.08
81319;BMP280;74078;48.420;14.828;2024-01-30T10:56:22;93884.03;;;13.72
81319;BMP280;74078;48.420;14.828;2024-01-30T10:58:52;93890.44;;;12.57
81319;BMP280;74078;48.420;14.828;2024-01-30T11:01:24;93877.84;;;13.60
81319;BMP280;74078;48.420;14.828;2024-01-30T11:03:51;93877.41;;;15.06
81319;BMP280;74078;48.420;14.828;2024-01-30T11:06:18;93883.47;;;14.72
81319;BMP280;74078;48.420;14.828;2024-01-30T11:08:45;93877.84;;;14.65
81319;BMP280;74078;48.420;14.828;2024-01-30T11:11:11;93867.84;;;15.88
81319;BMP280;74078;48.420;14.828;2024-01-30T11:13:38;93870.47;;;16.30
81319;BMP280;74078;48.420;14.828;2024-01-30T11:16:04;93861.34;;;15.51
81319;BMP280;74078;48.420;14.828;2024-01-30T11:18:31;93866.22;;;16.18
81319;BMP280;74078;48.420;14.828;2024-01-30T11:20:58;93870.84;;;17.18
81319;BMP280;74078;48.420;14.828;2024-01-30T11:23:30;93864.06;;;17.58
81319;BMP280;74078;48.420;14.828;2024-01-30T11:25:56;93866.13;;;16.92
81319;BMP280;74078;48.420;14.828;2024-01-30T11:28:23;93861.09;;;17.22
81319;BMP280;74078;48.420;14.828;2024-01-30T11:30:50;93863.50;;;17.01
81319;BMP280;74078;48.420;14.828;2024-01-30T11:33:26;93861.56;;;17.11
81319;BMP280;74078;48.420;14.828;2024-01-30T11:35:53;93863.28;;;17.14
81319;BMP280;74078;48.420;14.828;2024-01-30T11:38:20;93859.63;;;17.73
81319;BMP280;74078;48.420;14.828;2024-01-30T11:40:47;93859.31;;;18.15
81319;BMP280;74078;48.420;14.828;2024-01-30T11:43:14;93863.69;;;16.98
81319;BMP280;74078;48.420;14.828;2024-01-30T11:45:41;93870.72;;;16.88
81319;BMP280;74078;48.420;14.828;2024-01-30T11:48:09;93869.88;;;15.30
81319;BMP280;74078;48.420;14.828;2024-01-30T11:50:37;93875.78;;;14.90
81319;BMP280;74078;48.420;14.828;2024-01-30T11:53:04;93877.41;;;17.71
81319;BMP280;74078;48.420;14.828;2024-01-30T11:55:33;93882.94;;;17.02
81319;BMP280;74078;48.420;14.828;2024-01-30T11:58:02;93885.63;;;16.42
81319;BMP280;74078;48.420;14.828;2024-01-30T12:00:29;93885.94;;;17.39
81319;BMP280;74078;48.420;14.828;2024-01-30T12:02:59;93877.75;;;16.13
81319;BMP280;74078;48.420;14.828;2024-01-30T12:05:30;93893.25;;;17.70
81319;BMP280;74078;48.420;14.828;2024-01-30T12:07:56;93900.31;;;18.68
81319;BMP280;74078;48.420;14.828;2024-01-30T12:10:25;93893.97;;;18.84
81319;BMP280;74078;48.420;14.828;2024-01-30T12:12:52;93893.84;;;19.64
81319;BMP280;74078;48.420;14.828;2024-01-30T12:15:21;93893.13;;;18.72
81319;BMP280;74078;48.420;14.828;2024-01-30T12:17:47;93894.88;;;19.01
81319;BMP280;74078;48.420;14.828;2024-01-30T12:20:14;93895.28;;;18.59
81319;BMP280;74078;48.420;14.828;2024-01-30T12:22:45;93896.72;;;18.80
81319;BMP280;74078;48.420;14.828;2024-01-30T12:25:12;93909.25;;;18.87
81319;BMP280;74078;48.420;14.828;2024-01-30T12:27:39;93902.09;;;18.97
81319;BMP280;74078;48.420;14.828;2024-01-30T12:30:08;93904.66;;;19.17
81319;BMP280;74078;48.420;14.828;2024-01-30T12:32:39;93906.38;;;19.77
81319;BMP280;74078;48.420;14.828;2024-01-30T12:35:14;93903.81;;;18.85
81319;BMP280;74078;48.420;14.828;2024-01-30T12:37:40;93912.09;;;19.35
81319;BMP280;74078;48.420;14.828;2024-01-30T12:40:07;93914.56;;;20.01
81319;BMP280;74078;48.420;14.828;2024-01-30T12:42:32;93917.41;;;20.03
81319;BMP280;74078;48.420;14.828;2024-01-30T12:44:58;93917.03;;;19.33
81319;BMP280;74078;48.420;14.828;2024-01-30T12:47:26;93924.44;;;19.77
81319;BMP280;74078;48.420;14.828;2024-01-30T12:49:51;93922.16;;;20.10
81319;BMP280;74078;48.420;14.828;2024-01-30T12:52:20;93932.66;;;20.01
81319;BMP280;74078;48.420;14.828;2024-01-30T12:54:45;93932.59;;;21.39
81319;BMP280;74078;48.420;14.828;2024-01-30T12:57:11;93930.44;;;22.64
81319;BMP280;74078;48.420;14.828;2024-01-30T12:59:36;93935.28;;;22.84
81319;BMP280;74078;48.420;14.828;2024-01-30T13:02:01;93929.84;;;21.64
81319;BMP280;74078;48.420;14.828;2024-01-30T13:04:28;93929.94;;;22.71
81319;BMP280;74078;48.420;14.828;2024-01-30T13:06:53;93933.84;;;21.76
81319;BMP280;74078;48.420;14.828;2024-01-30T13:09:19;93925.13;;;21.52
81319;BMP280;74078;48.420;14.828;2024-01-30T13:11:44;93933.13;;;21.70
81319;BMP280;74078;48.420;14.828;2024-01-30T13:14:09;93933.13;;;22.09
81319;BMP280;74078;48.420;14.828;2024-01-30T13:16:35;93927.94;;;22.20
81319;BMP280;74078;48.420;14.828;2024-01-30T13:19:00;93929.13;;;22.98
81319;BMP280;74078;48.420;14.828;2024-01-30T13:21:26;93930.66;;;22.66
81319;BMP280;74078;48.420;14.828;2024-01-30T13:23:52;93936.56;;;23.89
81319;BMP280;74078;48.420;14.828;2024-01-30T13:26:19;93944.63;;;23.85
81319;BMP280;74078;48.420;14.828;2024-01-30T13:28:44;93939.50;;;22.02
81319;BMP280;74078;48.420;14.828;2024-01-30T13:31:09;93945.09;;;21.40
81319;BMP280;74078;48.420;14.828;2024-01-30T13:33:35;93944.34;;;22.61
81319;BMP280;74078;48.420;14.828;2024-01-30T13:36:00;93944.09;;;23.57
81319;BMP280;74078;48.420;14.828;2024-01-30T13:38:25;93948.59;;;22.53
81319;BMP280;74078;48.420;14.828;2024-01-30T13:40:51;93946.47;;;24.14
81319;BMP280;74078;48.420;14.828;2024-01-30T13:43:17;93949.13;;;22.30
81319;BMP280;74078;48.420;14.828;2024-01-30T13:45:42;93945.59;;;21.55
81319;BMP280;74078;48.420;14.828;2024-01-30T13:48:08;93949.84;;;23.09
81319;BMP280;74078;48.420;14.828;2024-01-30T13:50:33;93947.66;;;22.51
81319;BMP280;74078;48.420;14.828;2024-01-30T13:52:58;93894.94;;;22.37
81319;BMP280;74078;48.420;14.828;2024-01-30T13:55:23;93869.16;;;20.14
81319;BMP280;74078;48.420;14.828;2024-01-30T13:57:49;93912.75;;;20.91
81319;BMP280;74078;48.420;14.828;2024-01-30T14:00:14;93950.75;;;20.37
81319;BMP280;74078;48.420;14.828;2024-01-30T14:02:41;93958.44;;;21.16